Time;durP1;ratioP1;P1;durP2;ratioP2;P2;SDS_P1;SDS_P2;PMS_P1;PMS_P2;Temp;Humidity;BMP_temperature;BMP_pressure;BME280_temperature;BME280_humidity;BME280_pressure;Samples;Min_cycle;Max_cycle;Signal;HPM_P1;HPM_P2
2021/06/14 00:01:26;;;;;;;4.07;2.40;;;;;;;;;;5094285;28;20031;-57
2021/06/14 00:03:52;;;;;;;4.55;1.42;;;;;;;;;;5093769;28;20028;-57
2021/06/14 00:06:18;;;;;;;3.40;1.63;;;;;;;;;;5093819;28;20111;-57
2021/06/14 00:08:44;;;;;;;4.93;1.83;;;;;;;;;;5093937;28;20122;-58
2021/06/14 00:11:11;;;;;;;4.68;2.00;;;;;;;;;;5094325;28;20031;-57
2021/06/14 00:13:37;;;;;;;3.42;1.90;;;;;;;;;;5093743;28;20063;-57
2021/06/14 00:16:06;;;;;;;7.28;2.30;;;;;;;;;;5093786;28;20035;-56
2021/06/14 00:18:32;;;;;;;3.10;2.03;;;;;;;;;;5094506;28;20031;-57
2021/06/14 00:21:00;;;;;;;3.10;2.00;;;;;;;;;;5094610;28;20461;-57
2021/06/14 00:23:28;;;;;;;4.18;2.10;;;;;;;;;;5097799;28;20036;-57
2021/06/14 00:25:54;;;;;;;2.78;1.75;;;;;;;;;;5098408;28;20031;-57
2021/06/14 00:28:20;;;;;;;3.80;1.90;;;;;;;;;;5097840;28;20028;-57
2021/06/14 00:30:48;;;;;;;4.90;2.63;;;;;;;;;;5097822;28;20114;-57
2021/06/14 00:33:15;;;;;;;2.83;2.13;;;;;;;;;;5098512;28;20020;-57
2021/06/14 00:35:42;;;;;;;3.67;2.03;;;;;;;;;;5097601;28;20024;-58
2021/06/14 00:38:08;;;;;;;6.07;2.15;;;;;;;;;;5097613;28;20027;-57
2021/06/14 00:40:34;;;;;;;2.47;1.63;;;;;;;;;;5097147;28;20035;-57
2021/06/14 00:43:00;;;;;;;4.30;1.92;;;;;;;;;;5098012;28;20035;-58
2021/06/14 00:45:29;;;;;;;4.07;2.22;;;;;;;;;;5097431;28;20028;-57
2021/06/14 00:47:55;;;;;;;3.38;2.00;;;;;;;;;;5097520;28;20024;-57
2021/06/14 00:50:32;;;;;;;4.00;2.22;;;;;;;;;;5097379;28;20035;-58
2021/06/14 00:52:58;;;;;;;5.03;2.33;;;;;;;;;;5097624;28;20042;-57
2021/06/14 00:55:24;;;;;;;3.92;2.00;;;;;;;;;;5097133;28;20028;-57
2021/06/14 00:57:50;;;;;;;5.50;2.47;;;;;;;;;;5096969;28;20050;-57
2021/06/14 01:00:16;;;;;;;4.05;1.83;;;;;;;;;;5097174;28;20106;-58
2021/06/14 01:02:42;;;;;;;2.92;1.90;;;;;;;;;;5097688;28;20072;-58
2021/06/14 01:05:10;;;;;;;3.20;1.60;;;;;;;;;;5096920;28;20092;-57
2021/06/14 01:07:37;;;;;;;5.13;2.05;;;;;;;;;;5097027;28;20028;-57
2021/06/14 01:10:04;;;;;;;3.42;2.05;;;;;;;;;;5096493;28;20063;-58
2021/06/14 01:12:34;;;;;;;2.40;1.65;;;;;;;;;;5097254;28;20158;-57
2021/06/14 01:15:17;;;;;;;3.30;2.10;;;;;;;;;;5096608;28;20032;-57
2021/06/14 01:17:43;;;;;;;7.93;2.67;;;;;;;;;;5096910;28;20263;-58
2021/06/14 01:20:15;;;;;;;3.33;1.80;;;;;;;;;;5096826;28;20449;-57
2021/06/14 01:22:59;;;;;;;2.42;1.50;;;;;;;;;;5096799;28;20024;-56
2021/06/14 01:25:27;;;;;;;2.47;1.42;;;;;;;;;;5097244;28;20377;-57
2021/06/14 01:28:01;;;;;;;7.45;2.50;;;;;;;;;;5096991;28;20024;-57
2021/06/14 01:30:30;;;;;;;2.55;1.77;;;;;;;;;;5097322;28;20028;-57
2021/06/14 01:32:56;;;;;;;5.57;2.17;;;;;;;;;;5096043;28;20035;-57
2021/06/14 01:35:41;;;;;;;3.38;1.90;;;;;;;;;;5096547;28;20028;-57
2021/06/14 01:38:09;;;;;;;3.28;1.85;;;;;;;;;;5096580;28;20454;-57
2021/06/14 01:40:35;;;;;;;2.92;1.98;;;;;;;;;;5096433;28;20107;-57
2021/06/14 01:43:03;;;;;;;5.57;2.58;;;;;;;;;;5096285;28;20024;-57
2021/06/14 01:45:30;;;;;;;3.55;1.95;;;;;;;;;;5096239;28;20024;-57
2021/06/14 01:47:57;;;;;;;3.15;1.77;;;;;;;;;;5096784;28;20028;-57
2021/06/14 01:50:25;;;;;;;3.85;2.53;;;;;;;;;;5094949;28;20036;-57
2021/06/14 01:52:51;;;;;;;4.57;2.40;;;;;;;;;;5096448;28;20059;-57
2021/06/14 01:55:18;;;;;;;4.55;2.63;;;;;;;;;;5096102;28;20377;-56
2021/06/14 01:57:45;;;;;;;4.63;2.80;;;;;;;;;;5096007;28;20048;-57
2021/06/14 02:00:11;;;;;;;5.85;2.40;;;;;;;;;;5096346;28;20031;-57
2021/06/14 02:02:38;;;;;;;3.50;2.42;;;;;;;;;;5094789;28;20024;-57
2021/06/14 02:05:05;;;;;;;3.88;2.47;;;;;;;;;;5095883;28;20028;-56
2021/06/14 02:07:31;;;;;;;4.25;2.35;;;;;;;;;;5096127;28;20468;-57
2021/06/14 02:09:57;;;;;;;4.03;2.08;;;;;;;;;;5096684;28;20048;-58
2021/06/14 02:12:24;;;;;;;3.00;2.00;;;;;;;;;;5096223;28;20058;-57
2021/06/14 02:14:50;;;;;;;3.10;2.17;;;;;;;;;;5095455;28;20039;-57
2021/06/14 02:17:20;;;;;;;2.97;2.03;;;;;;;;;;5095790;28;20035;-55
2021/06/14 02:19:47;;;;;;;3.05;2.00;;;;;;;;;;5094964;28;20442;-57
2021/06/14 02:22:17;;;;;;;3.45;2.08;;;;;;;;;;5094410;28;20018;-57
2021/06/14 02:24:43;;;;;;;3.73;2.23;;;;;;;;;;5094696;28;20420;-55
2021/06/14 02:27:15;;;;;;;4.28;2.65;;;;;;;;;;5095573;28;20028;-57
2021/06/14 02:29:41;;;;;;;3.30;1.85;;;;;;;;;;5096357;28;20400;-56
2021/06/14 02:32:08;;;;;;;3.50;2.00;;;;;;;;;;5096068;28;20032;-57
2021/06/14 02:34:36;;;;;;;4.57;1.80;;;;;;;;;;5095393;28;20024;-57
2021/06/14 02:37:02;;;;;;;4.10;1.83;;;;;;;;;;5095829;28;20028;-57
2021/06/14 02:39:30;;;;;;;3.30;1.88;;;;;;;;;;5095309;28;20359;-57
2021/06/14 02:41:56;;;;;;;4.25;2.10;;;;;;;;;;5095818;28;20051;-57
2021/06/14 02:44:24;;;;;;;2.20;1.42;;;;;;;;;;5093875;28;20393;-57
2021/06/14 02:46:50;;;;;;;3.58;2.45;;;;;;;;;;5094851;28;20377;-57
2021/06/14 02:49:19;;;;;;;2.83;2.00;;;;;;;;;;5094780;28;20023;-57
2021/06/14 02:51:46;;;;;;;3.00;2.05;;;;;;;;;;5094134;28;20031;-57
2021/06/14 02:54:17;;;;;;;6.60;2.28;;;;;;;;;;5095005;28;20028;-57
2021/06/14 02:56:43;;;;;;;5.18;1.90;;;;;;;;;;5094932;28;20028;-57
2021/06/14 02:59:11;;;;;;;2.97;2.13;;;;;;;;;;5094949;28;20028;-57
2021/06/14 03:01:38;;;;;;;3.47;2.35;;;;;;;;;;5095475;28;20031;-57
2021/06/14 03:04:05;;;;;;;3.20;2.08;;;;;;;;;;5094280;28;20043;-57
2021/06/14 03:06:31;;;;;;;7.97;2.42;;;;;;;;;;5094797;28;20032;-56
2021/06/14 03:08:58;;;;;;;4.07;2.25;;;;;;;;;;5094744;28;20054;-57
2021/06/14 03:11:29;;;;;;;5.25;2.25;;;;;;;;;;5095244;28;20052;-57
2021/06/14 03:13:57;;;;;;;5.90;2.63;;;;;;;;;;5094920;28;20040;-57
2021/06/14 03:16:24;;;;;;;3.35;1.92;;;;;;;;;;5094956;28;20028;-57
2021/06/14 03:18:51;;;;;;;2.97;1.80;;;;;;;;;;5093471;28;20031;-56
2021/06/14 03:21:17;;;;;;;4.03;2.70;;;;;;;;;;5094666;28;20024;-57
2021/06/14 03:23:43;;;;;;;5.95;2.38;;;;;;;;;;5094777;28;20036;-57
2021/06/14 03:26:12;;;;;;;3.53;2.33;;;;;;;;;;5093495;28;20074;-57
2021/06/14 03:28:40;;;;;;;3.22;2.28;;;;;;;;;;5094122;28;20123;-57
2021/06/14 03:31:06;;;;;;;3.33;2.15;;;;;;;;;;5095159;28;20020;-57
2021/06/14 03:33:32;;;;;;;4.53;2.80;;;;;;;;;;5094389;28;20028;-57
2021/06/14 03:35:58;;;;;;;3.53;2.75;;;;;;;;;;5094759;28;20059;-58
2021/06/14 03:38:25;;;;;;;4.28;2.15;;;;;;;;;;5094593;28;20028;-59
2021/06/14 03:40:51;;;;;;;3.83;2.80;;;;;;;;;;5094724;28;20119;-57
2021/06/14 03:43:17;;;;;;;3.78;1.98;;;;;;;;;;5093423;28;20073;-57
2021/06/14 03:45:43;;;;;;;3.30;2.33;;;;;;;;;;5094153;28;20031;-57
2021/06/14 03:48:09;;;;;;;4.13;2.80;;;;;;;;;;5093797;28;20024;-57
2021/06/14 03:50:35;;;;;;;3.72;2.42;;;;;;;;;;5093107;28;20028;-56
2021/06/14 03:53:02;;;;;;;3.00;2.13;;;;;;;;;;5094161;28;20028;-57
2021/06/14 03:55:29;;;;;;;3.35;1.58;;;;;;;;;;5093665;28;20388;-57
2021/06/14 03:57:55;;;;;;;3.60;2.25;;;;;;;;;;5094026;28;20024;-58
2021/06/14 04:00:23;;;;;;;4.13;2.53;;;;;;;;;;5092719;28;20115;-57
2021/06/14 04:02:49;;;;;;;6.10;3.05;;;;;;;;;;5093726;28;20469;-57
2021/06/14 04:05:16;;;;;;;4.68;2.58;;;;;;;;;;5093859;28;20032;-57
2021/06/14 04:07:42;;;;;;;5.20;2.30;;;;;;;;;;5093752;28;20051;-57
2021/06/14 04:10:08;;;;;;;9.15;3.17;;;;;;;;;;5092931;28;20382;-57
2021/06/14 04:12:34;;;;;;;5.07;2.70;;;;;;;;;;5094178;28;20020;-57
2021/06/14 04:15:00;;;;;;;5.22;3.40;;;;;;;;;;5093274;28;20113;-57
2021/06/14 04:17:28;;;;;;;3.60;2.60;;;;;;;;;;5094354;28;20097;-57
2021/06/14 04:19:54;;;;;;;3.45;2.05;;;;;;;;;;5093767;28;20020;-56
2021/06/14 04:22:20;;;;;;;4.75;2.63;;;;;;;;;;5094320;28;20414;-57
2021/06/14 04:24:46;;;;;;;5.72;2.83;;;;;;;;;;5093508;28;20032;-57
2021/06/14 04:27:12;;;;;;;2.65;1.90;;;;;;;;;;5093299;28;20388;-57
2021/06/14 04:29:38;;;;;;;5.60;2.70;;;;;;;;;;5094156;28;20031;-57
2021/06/14 04:32:05;;;;;;;3.47;2.22;;;;;;;;;;5093522;28;20377;-57
2021/06/14 04:34:31;;;;;;;3.35;2.35;;;;;;;;;;5093237;28;20032;-57
2021/06/14 04:36:57;;;;;;;3.85;2.50;;;;;;;;;;5092365;28;20449;-57
2021/06/14 04:39:23;;;;;;;4.50;1.95;;;;;;;;;;5093634;28;20024;-57
2021/06/14 04:41:49;;;;;;;4.53;2.65;;;;;;;;;;5093593;28;20116;-57
2021/06/14 04:44:15;;;;;;;4.05;2.80;;;;;;;;;;5093506;28;20036;-57
2021/06/14 04:46:41;;;;;;;4.53;2.50;;;;;;;;;;5093999;28;20024;-57
2021/06/14 04:49:07;;;;;;;5.95;2.70;;;;;;;;;;5093997;28;20106;-57
2021/06/14 04:51:33;;;;;;;4.45;2.55;;;;;;;;;;5092281;28;20052;-57
2021/06/14 04:53:59;;;;;;;3.17;2.08;;;;;;;;;;5093717;28;20060;-57
2021/06/14 04:56:25;;;;;;;3.80;2.75;;;;;;;;;;5092992;28;20101;-57
2021/06/14 04:58:51;;;;;;;3.65;2.10;;;;;;;;;;5093991;28;20085;-57
2021/06/14 05:01:17;;;;;;;3.40;2.40;;;;;;;;;;5093429;28;20024;-57
2021/06/14 05:03:43;;;;;;;3.55;2.45;;;;;;;;;;5075578;28;20029;-57
2021/06/14 05:06:11;;;;;;;4.45;3.20;;;;;;;;;;5093565;28;20412;-57
2021/06/14 05:08:37;;;;;;;5.18;2.70;;;;;;;;;;5095048;28;20036;-57
2021/06/14 05:11:03;;;;;;;3.05;2.22;;;;;;;;;;5097277;28;20022;-57
2021/06/14 05:13:29;;;;;;;3.67;2.25;;;;;;;;;;5095736;28;20016;-57
2021/06/14 05:15:57;;;;;;;3.58;2.45;;;;;;;;;;5097038;28;20031;-57
2021/06/14 05:18:23;;;;;;;5.57;2.50;;;;;;;;;;5097144;28;20020;-57
2021/06/14 05:20:49;;;;;;;4.00;2.25;;;;;;;;;;5095228;28;20024;-57
2021/06/14 05:23:18;;;;;;;4.82;3.70;;;;;;;;;;5097427;28;20465;-57
2021/06/14 05:25:44;;;;;;;5.93;2.80;;;;;;;;;;5096030;28;20028;-57
2021/06/14 05:28:10;;;;;;;4.07;2.33;;;;;;;;;;5096895;28;20103;-57
2021/06/14 05:30:36;;;;;;;4.47;2.20;;;;;;;;;;5097467;28;20016;-57
2021/06/14 05:33:02;;;;;;;3.28;2.47;;;;;;;;;;5097016;28;20027;-57
2021/06/14 05:35:28;;;;;;;6.13;2.83;;;;;;;;;;5095307;28;20028;-57
2021/06/14 05:37:54;;;;;;;5.25;2.13;;;;;;;;;;5096422;28;20056;-57
2021/06/14 05:40:21;;;;;;;3.38;2.30;;;;;;;;;;5096353;28;20389;-58
2021/06/14 05:42:48;;;;;;;6.25;2.80;;;;;;;;;;5096117;28;20035;-59
2021/06/14 05:45:16;;;;;;;11.60;3.42;;;;;;;;;;5096116;28;20055;-58
2021/06/14 05:47:42;;;;;;;4.30;2.45;;;;;;;;;;5095817;28;20050;-58
2021/06/14 05:50:08;;;;;;;4.53;2.63;;;;;;;;;;5096064;28;20084;-58
2021/06/14 05:52:35;;;;;;;4.63;2.55;;;;;;;;;;5095738;28;20331;-57
2021/06/14 05:55:01;;;;;;;2.95;2.25;;;;;;;;;;5096189;28;20036;-58
2021/06/14 05:57:29;;;;;;;5.22;2.65;;;;;;;;;;5095840;28;20064;-58
2021/06/14 05:59:55;;;;;;;6.05;2.70;;;;;;;;;;5094775;28;20032;-59
2021/06/14 06:02:21;;;;;;;6.60;2.33;;;;;;;;;;5096074;28;20165;-58
2021/06/14 06:04:47;;;;;;;4.57;2.75;;;;;;;;;;5095530;28;20031;-58
2021/06/14 06:07:13;;;;;;;7.63;2.35;;;;;;;;;;5095691;28;20013;-58
2021/06/14 06:09:39;;;;;;;4.28;2.58;;;;;;;;;;5094412;28;20473;-58
2021/06/14 06:12:06;;;;;;;3.95;2.35;;;;;;;;;;5095844;28;20024;-58
2021/06/14 06:14:32;;;;;;;4.65;2.53;;;;;;;;;;5095893;28;20028;-57
2021/06/14 06:16:58;;;;;;;5.13;2.58;;;;;;;;;;5094501;28;20026;-58
2021/06/14 06:19:24;;;;;;;3.53;2.17;;;;;;;;;;5095708;28;20031;-57
2021/06/14 06:21:50;;;;;;;3.10;2.03;;;;;;;;;;5096027;28;20081;-58
2021/06/14 06:24:16;;;;;;;4.57;2.40;;;;;;;;;;5094312;28;20043;-60
2021/06/14 06:26:42;;;;;;;4.03;2.40;;;;;;;;;;5095596;28;20043;-59
2021/06/14 06:29:11;;;;;;;2.92;1.95;;;;;;;;;;5095247;28;20493;-59
2021/06/14 06:31:37;;;;;;;6.78;2.55;;;;;;;;;;5094990;28;20020;-59
2021/06/14 06:34:03;;;;;;;3.55;2.35;;;;;;;;;;5095398;28;20101;-59
2021/06/14 06:36:29;;;;;;;3.78;2.00;;;;;;;;;;5095686;28;20020;-58
2021/06/14 06:38:55;;;;;;;3.00;2.03;;;;;;;;;;5094899;28;20024;-59
2021/06/14 06:41:21;;;;;;;3.58;2.42;;;;;;;;;;5096136;28;20103;-59
2021/06/14 06:43:47;;;;;;;3.63;2.38;;;;;;;;;;5095211;28;20181;-59
2021/06/14 06:46:13;;;;;;;2.60;1.75;;;;;;;;;;5095258;28;20478;-59
2021/06/14 06:48:39;;;;;;;3.42;2.42;;;;;;;;;;5095138;28;20115;-57
2021/06/14 06:51:05;;;;;;;2.72;1.85;;;;;;;;;;5095761;28;20020;-59
2021/06/14 06:53:31;;;;;;;3.33;1.90;;;;;;;;;;5094961;28;20024;-59
2021/06/14 06:55:57;;;;;;;6.25;2.65;;;;;;;;;;5094913;28;20026;-59
2021/06/14 06:58:23;;;;;;;3.45;2.25;;;;;;;;;;5095032;28;20357;-59
2021/06/14 07:00:51;;;;;;;3.92;2.40;;;;;;;;;;5095353;28;20063;-59
2021/06/14 07:03:17;;;;;;;4.03;2.63;;;;;;;;;;5095388;28;20024;-59
2021/06/14 07:05:43;;;;;;;4.18;2.17;;;;;;;;;;5094853;28;20024;-59
2021/06/14 07:08:10;;;;;;;2.60;1.92;;;;;;;;;;5094592;28;20054;-59
2021/06/14 07:10:37;;;;;;;8.75;2.58;;;;;;;;;;5095334;28;20506;-56
2021/06/14 07:13:04;;;;;;;3.58;2.20;;;;;;;;;;5094665;28;20083;-56
2021/06/14 07:15:30;;;;;;;3.83;2.35;;;;;;;;;;5094761;28;20032;-57
2021/06/14 07:17:56;;;;;;;5.32;2.97;;;;;;;;;;5094977;28;20047;-58
2021/06/14 07:20:22;;;;;;;3.95;2.25;;;;;;;;;;5077406;28;20048;-57
2021/06/14 07:22:48;;;;;;;3.67;2.25;;;;;;;;;;5094850;28;20027;-57
2021/06/14 07:25:15;;;;;;;9.40;2.45;;;;;;;;;;5094693;28;20123;-58
2021/06/14 07:27:41;;;;;;;5.32;2.30;;;;;;;;;;5094772;28;20059;-57
2021/06/14 07:30:12;;;;;;;4.55;1.85;;;;;;;;;;5094046;28;20027;-57
2021/06/14 07:32:38;;;;;;;;;;;;;;;;;;5095646;28;20020;-58
2021/06/14 07:35:04;;;;;;;6.53;2.45;;;;;;;;;;5094338;28;19911;-58
2021/06/14 07:37:30;;;;;;;6.07;2.13;;;;;;;;;;5094649;28;20027;-58
2021/06/14 07:39:56;;;;;;;4.22;2.03;;;;;;;;;;5094283;28;20365;-58
2021/06/14 07:42:22;;;;;;;2.85;2.05;;;;;;;;;;5094525;28;20048;-58
2021/06/14 07:44:48;;;;;;;3.60;2.28;;;;;;;;;;5094016;28;20134;-58
2021/06/14 07:47:14;;;;;;;4.22;2.10;;;;;;;;;;5094906;28;20017;-57
2021/06/14 07:49:42;;;;;;;4.25;2.88;;;;;;;;;;5092856;28;20051;-58
2021/06/14 07:52:08;;;;;;;5.55;2.78;;;;;;;;;;5094478;28;20020;-58
2021/06/14 07:54:38;;;;;;;6.90;1.95;;;;;;;;;;5093262;28;20454;-58
2021/06/14 07:57:04;;;;;;;3.83;2.25;;;;;;;;;;5093983;28;20035;-57
2021/06/14 07:59:32;;;;;;;3.72;2.38;;;;;;;;;;5093734;28;20458;-58
2021/06/14 08:02:00;;;;;;;4.57;2.65;;;;;;;;;;5092530;28;20032;-58
2021/06/14 08:04:26;;;;;;;4.85;2.47;;;;;;;;;;5093838;28;20110;-58
2021/06/14 08:06:52;;;;;;;3.15;2.15;;;;;;;;;;5094085;28;20020;-58
2021/06/14 08:09:25;;;;;;;3.50;2.30;;;;;;;;;;5093364;28;20401;-58
2021/06/14 08:11:53;;;;;;;2.70;1.83;;;;;;;;;;5093884;28;20070;-58
2021/06/14 08:14:19;;;;;;;5.40;2.17;;;;;;;;;;5092800;28;20028;-58
2021/06/14 08:16:45;;;;;;;4.03;2.22;;;;;;;;;;5092487;28;20365;-58
2021/06/14 08:19:19;;;;;;;5.18;2.47;;;;;;;;;;5094278;28;20024;-58
2021/06/14 08:27:16;;;;;;;3.00;2.38;;;;;;;;;;5093766;28;20101;-58
2021/06/14 08:29:42;;;;;;;3.22;2.03;;;;;;;;;;5092417;28;20031;-57
2021/06/14 08:32:08;;;;;;;4.53;2.97;;;;;;;;;;5093867;28;20028;-58
2021/06/14 08:34:34;;;;;;;5.15;2.67;;;;;;;;;;5093868;28;20024;-58
2021/06/14 08:37:00;;;;;;;4.18;2.03;;;;;;;;;;5093847;28;20107;-58
2021/06/14 08:39:26;;;;;;;7.72;1.92;;;;;;;;;;5093890;28;20024;-58
2021/06/14 08:41:52;;;;;;;4.30;1.80;;;;;;;;;;5092907;28;20024;-58
2021/06/14 08:44:18;;;;;;;2.78;1.98;;;;;;;;;;5097517;28;20032;-58
2021/06/14 08:46:44;;;;;;;3.75;2.20;;;;;;;;;;5098364;28;20036;-58
2021/06/14 08:49:10;;;;;;;4.80;2.38;;;;;;;;;;5097532;28;20081;-58
2021/06/14 08:51:36;;;;;;;4.47;2.67;;;;;;;;;;5098046;28;20028;-58
2021/06/14 08:54:05;;;;;;;4.15;2.10;;;;;;;;;;5097397;28;20373;-58
2021/06/14 08:56:31;;;;;;;4.95;2.63;;;;;;;;;;5095830;28;20144;-58
2021/06/14 08:58:57;;;;;;;4.55;1.90;;;;;;;;;;5095834;28;20162;-58
2021/06/14 09:01:24;;;;;;;3.40;2.03;;;;;;;;;;5097910;28;20035;-58
2021/06/14 09:03:50;;;;;;;3.80;1.92;;;;;;;;;;5097164;28;20122;-58
2021/06/14 09:06:16;;;;;;;4.07;1.95;;;;;;;;;;5096514;28;20040;-58
2021/06/14 09:08:43;;;;;;;4.78;1.95;;;;;;;;;;5097597;28;20140;-58
2021/06/14 09:11:10;;;;;;;3.00;1.88;;;;;;;;;;5096922;28;20050;-58
2021/06/14 09:13:37;;;;;;;4.45;2.03;;;;;;;;;;5097127;28;20106;-58
2021/06/14 09:16:07;;;;;;;3.30;2.05;;;;;;;;;;5096859;28;20105;-58
2021/06/14 09:18:34;;;;;;;5.15;2.55;;;;;;;;;;5097067;28;20024;-59
2021/06/14 09:21:00;;;;;;;3.00;2.08;;;;;;;;;;5097292;28;20028;-58
2021/06/14 09:23:38;;;;;;;5.43;2.50;;;;;;;;;;5096713;28;20357;-58
2021/06/14 09:26:04;;;;;;;2.38;1.40;;;;;;;;;;5097184;28;20525;-58
2021/06/14 09:28:31;;;;;;;2.58;1.45;;;;;;;;;;5097249;28;20055;-58
2021/06/14 09:30:57;;;;;;;4.05;2.20;;;;;;;;;;5095803;28;20027;-58
2021/06/14 09:33:24;;;;;;;3.95;1.85;;;;;;;;;;5096605;28;20052;-58
2021/06/14 09:35:52;;;;;;;4.70;1.77;;;;;;;;;;5096732;28;20024;-58
2021/06/14 09:38:19;;;;;;;2.55;1.55;;;;;;;;;;5095806;28;20373;-58
2021/06/14 09:40:46;;;;;;;5.53;2.08;;;;;;;;;;5096868;28;20016;-59
2021/06/14 09:43:21;;;;;;;4.10;1.75;;;;;;;;;;5096467;28;20104;-58
2021/06/14 09:45:47;;;;;;;4.35;1.63;;;;;;;;;;5096113;28;20028;-58
2021/06/14 09:48:20;;;;;;;5.18;1.60;;;;;;;;;;5096673;28;20017;-58
2021/06/14 09:50:47;;;;;;;2.45;1.65;;;;;;;;;;5096313;28;20361;-58
2021/06/14 09:53:14;;;;;;;1.60;1.05;;;;;;;;;;5095748;28;20092;-59
2021/06/14 09:55:41;;;;;;;3.83;1.67;;;;;;;;;;5096042;28;20103;-58
2021/06/14 09:58:21;;;;;;;2.33;1.20;;;;;;;;;;5096684;28;20027;-58
2021/06/14 10:00:53;;;;;;;2.22;1.60;;;;;;;;;;5095595;28;20366;-58
2021/06/14 10:03:24;;;;;;;3.25;1.45;;;;;;;;;;5095954;28;20026;-58
2021/06/14 10:05:51;;;;;;;3.90;1.73;;;;;;;;;;5095093;28;20024;-58
2021/06/14 10:08:25;;;;;;;3.95;1.58;;;;;;;;;;5096306;28;20024;-58
2021/06/14 10:10:59;;;;;;;2.20;1.10;;;;;;;;;;5095850;28;20020;-58
2021/06/14 10:13:29;;;;;;;3.72;1.50;;;;;;;;;;5095978;28;20024;-58
2021/06/14 10:16:01;;;;;;;2.90;1.75;;;;;;;;;;5094741;28;20358;-58
2021/06/14 10:18:32;;;;;;;5.18;1.42;;;;;;;;;;5095935;28;20485;-58
2021/06/14 10:20:58;;;;;;;2.17;1.40;;;;;;;;;;5095714;28;20035;-58
2021/06/14 10:23:24;;;;;;;3.05;1.98;;;;;;;;;;5095515;28;20020;-58
2021/06/14 10:25:50;;;;;;;2.70;1.58;;;;;;;;;;5094248;28;20012;-58
2021/06/14 10:28:16;;;;;;;3.72;1.92;;;;;;;;;;5095584;28;20111;-58
2021/06/14 10:30:42;;;;;;;8.85;2.22;;;;;;;;;;5095947;28;20027;-58
2021/06/14 10:33:08;;;;;;;2.95;1.52;;;;;;;;;;5095359;28;20059;-58
2021/06/14 10:35:35;;;;;;;3.50;2.08;;;;;;;;;;5095340;28;20055;-58
2021/06/14 10:38:02;;;;;;;2.55;1.40;;;;;;;;;;5094077;28;20361;-58
2021/06/14 10:40:28;;;;;;;1.80;1.05;;;;;;;;;;5095121;28;20027;-58
2021/06/14 10:42:54;;;;;;;2.30;1.52;;;;;;;;;;5095617;28;20020;-58
2021/06/14 10:45:24;;;;;;;5.65;2.05;;;;;;;;;;5095803;28;20028;-59
2021/06/14 10:47:50;;;;;;;3.85;1.55;;;;;;;;;;5095239;28;20027;-58
2021/06/14 10:50:20;;;;;;;2.70;1.55;;;;;;;;;;5095670;28;20020;-58
2021/06/14 10:52:47;;;;;;;4.80;1.75;;;;;;;;;;5095520;28;20020;-59
2021/06/14 10:55:14;;;;;;;3.15;2.03;;;;;;;;;;5095317;28;20023;-59
2021/06/14 10:57:41;;;;;;;5.07;1.50;;;;;;;;;;5094972;28;20024;-59
2021/06/14 11:00:24;;;;;;;2.70;1.38;;;;;;;;;;5094964;28;20024;-58
2021/06/14 11:02:51;;;;;;;4.65;2.05;;;;;;;;;;5095228;28;20036;-58
2021/06/14 11:05:27;;;;;;;1.85;1.30;;;;;;;;;;5093770;28;20500;-58
2021/06/14 11:07:53;;;;;;;3.28;1.90;;;;;;;;;;5095441;28;20503;-58
2021/06/14 11:10:23;;;;;;;3.17;1.45;;;;;;;;;;5095320;28;20044;-58
2021/06/14 11:12:49;;;;;;;3.83;2.00;;;;;;;;;;5094693;28;20546;-58
2021/06/14 11:15:15;;;;;;;2.40;1.45;;;;;;;;;;5095435;28;20036;-59
2021/06/14 11:17:41;;;;;;;2.38;1.45;;;;;;;;;;5094590;28;20028;-58
2021/06/14 11:20:10;;;;;;;2.83;1.38;;;;;;;;;;5094538;28;20035;-58
2021/06/14 11:22:43;;;;;;;2.22;1.17;;;;;;;;;;5095113;28;20077;-58
2021/06/14 11:25:15;;;;;;;2.20;1.25;;;;;;;;;;5094644;28;20150;-58
2021/06/14 11:27:41;;;;;;;3.38;1.58;;;;;;;;;;5095065;28;20032;-58
2021/06/14 11:30:19;;;;;;;2.65;1.48;;;;;;;;;;5094485;28;20028;-58
2021/06/14 11:32:45;;;;;;;3.30;1.65;;;;;;;;;;5095255;28;20383;-59
2021/06/14 11:35:13;;;;;;;1.73;1.20;;;;;;;;;;5094199;28;20028;-58
2021/06/14 11:37:39;;;;;;;2.95;1.48;;;;;;;;;;5094392;28;20020;-59
2021/06/14 11:40:06;;;;;;;6.85;1.40;;;;;;;;;;5094315;28;20031;-58
2021/06/14 11:42:43;;;;;;;2.70;1.50;;;;;;;;;;5094386;28;20020;-58
2021/06/14 11:45:20;;;;;;;2.25;1.33;;;;;;;;;;5093913;28;20405;-58
2021/06/14 11:47:46;;;;;;;2.80;1.50;;;;;;;;;;5094916;28;20037;-58
2021/06/14 11:50:12;;;;;;;2.08;1.10;;;;;;;;;;5094416;28;20036;-58
2021/06/14 11:52:38;;;;;;;2.65;1.63;;;;;;;;;;5094362;28;20366;-58
2021/06/14 11:55:11;;;;;;;2.80;1.58;;;;;;;;;;5094030;28;20031;-58
2021/06/14 11:57:39;;;;;;;2.92;1.58;;;;;;;;;;5094410;28;20024;-59
2021/06/14 12:00:06;;;;;;;3.22;1.85;;;;;;;;;;5093903;28;20105;-59
2021/06/14 12:02:32;;;;;;;1.95;1.10;;;;;;;;;;5093962;28;20024;-59
2021/06/14 12:04:59;;;;;;;2.40;1.40;;;;;;;;;;5094352;28;20158;-59
2021/06/14 12:07:35;;;;;;;3.47;1.45;;;;;;;;;;5093916;28;20494;-59
2021/06/14 12:10:03;;;;;;;3.33;1.50;;;;;;;;;;5093655;28;20166;-59
2021/06/14 12:12:29;;;;;;;2.67;1.52;;;;;;;;;;5093894;28;20111;-59
2021/06/14 12:14:56;;;;;;;2.17;1.40;;;;;;;;;;5093936;28;20056;-59
2021/06/14 12:17:33;;;;;;;3.33;1.60;;;;;;;;;;5099753;28;20457;-59
2021/06/14 12:19:59;;;;;;;2.58;1.63;;;;;;;;;;5100407;28;20020;-59
2021/06/14 12:22:27;;;;;;;2.33;1.58;;;;;;;;;;5101162;28;20020;-59
2021/06/14 12:24:53;;;;;;;2.92;2.05;;;;;;;;;;5100112;28;20028;-59
2021/06/14 12:27:20;;;;;;;2.72;1.73;;;;;;;;;;5100506;28;20400;-59
2021/06/14 12:29:46;;;;;;;3.33;1.70;;;;;;;;;;5100781;28;20020;-59
2021/06/14 12:32:14;;;;;;;2.58;1.38;;;;;;;;;;5099282;28;20106;-59
2021/06/14 12:34:44;;;;;;;2.85;1.17;;;;;;;;;;5100400;28;20056;-59
2021/06/14 12:37:14;;;;;;;2.65;1.40;;;;;;;;;;5100385;28;20020;-58
2021/06/14 12:39:40;;;;;;;3.38;1.90;;;;;;;;;;5100200;28;20078;-58
2021/06/14 12:42:16;;;;;;;2.83;1.27;;;;;;;;;;5100725;28;20103;-59
2021/06/14 12:44:52;;;;;;;3.63;1.95;;;;;;;;;;5100515;28;20115;-59
2021/06/14 12:47:18;;;;;;;3.65;1.40;;;;;;;;;;5100968;28;20035;-59
2021/06/14 12:49:48;;;;;;;4.63;2.03;;;;;;;;;;5100286;28;20377;-59
2021/06/14 12:52:21;;;;;;;2.10;1.25;;;;;;;;;;5101207;28;20016;-59
2021/06/14 12:54:48;;;;;;;2.53;1.40;;;;;;;;;;5100069;28;20488;-58
2021/06/14 12:57:14;;;;;;;2.03;1.27;;;;;;;;;;5100210;28;20024;-59
2021/06/14 12:59:40;;;;;;;2.42;1.27;;;;;;;;;;5099634;28;20458;-59
2021/06/14 13:02:06;;;;;;;4.22;1.52;;;;;;;;;;5100371;28;20400;-59
2021/06/14 13:04:33;;;;;;;2.58;1.38;;;;;;;;;;5100143;28;20032;-58
2021/06/14 13:06:59;;;;;;;2.78;1.00;;;;;;;;;;5100661;28;20020;-58
2021/06/14 13:09:25;;;;;;;2.38;1.20;;;;;;;;;;5100424;28;20048;-58
2021/06/14 13:11:51;;;;;;;1.63;0.90;;;;;;;;;;5100080;28;20153;-58
2021/06/14 13:14:30;;;;;;;1.73;0.93;;;;;;;;;;5099699;28;20054;-58
2021/06/14 13:16:56;;;;;;;1.50;0.70;;;;;;;;;;5100094;28;20032;-58
2021/06/14 13:19:29;;;;;;;1.90;1.13;;;;;;;;;;5099873;28;20020;-58
2021/06/14 13:22:09;;;;;;;4.05;1.23;;;;;;;;;;5100194;28;20035;-58
2021/06/14 13:24:37;;;;;;;2.67;1.40;;;;;;;;;;5099547;28;20462;-58
2021/06/14 13:27:07;;;;;;;1.73;1.02;;;;;;;;;;5100437;28;20036;-58
2021/06/14 13:29:35;;;;;;;3.75;1.50;;;;;;;;;;5095693;28;20020;-58
2021/06/14 13:32:05;;;;;;;2.30;1.20;;;;;;;;;;5096717;28;20115;-58
2021/06/14 13:34:34;;;;;;;2.40;1.33;;;;;;;;;;5096594;28;20590;-58
2021/06/14 13:37:00;;;;;;;3.03;1.17;;;;;;;;;;5096392;28;20489;-58
2021/06/14 13:39:28;;;;;;;3.15;1.30;;;;;;;;;;5097191;28;20024;-59
2021/06/14 13:42:05;;;;;;;2.25;1.38;;;;;;;;;;5097133;28;20020;-58
2021/06/14 13:44:31;;;;;;;3.42;1.40;;;;;;;;;;5096638;28;20067;-59
2021/06/14 13:46:57;;;;;;;2.08;1.10;;;;;;;;;;5096336;28;20027;-59
2021/06/14 13:49:36;;;;;;;1.73;1.10;;;;;;;;;;5096683;28;20327;-59
2021/06/14 13:52:10;;;;;;;2.47;1.23;;;;;;;;;;5097226;28;20024;-59
2021/06/14 13:54:37;;;;;;;2.80;1.30;;;;;;;;;;5096203;28;20035;-59
2021/06/14 13:57:07;;;;;;;2.67;1.23;;;;;;;;;;5095532;28;20028;-59
2021/06/14 13:59:33;;;;;;;2.05;1.25;;;;;;;;;;5095936;28;20466;-59
2021/06/14 14:02:00;;;;;;;2.30;1.50;;;;;;;;;;5096209;28;20070;-59
2021/06/14 14:04:27;;;;;;;2.28;1.10;;;;;;;;;;5096048;28;20122;-59
2021/06/14 14:06:54;;;;;;;2.33;1.02;;;;;;;;;;5096101;28;20448;-59
2021/06/14 14:09:20;;;;;;;2.58;1.38;;;;;;;;;;5096244;28;20048;-59
2021/06/14 14:11:47;;;;;;;5.38;1.05;;;;;;;;;;5096330;28;20023;-59
2021/06/14 14:14:14;;;;;;;3.13;1.70;;;;;;;;;;5095967;28;20020;-59
2021/06/14 14:16:41;;;;;;;2.22;1.40;;;;;;;;;;5096412;28;20406;-59
2021/06/14 14:19:09;;;;;;;2.15;1.10;;;;;;;;;;5095892;28;20449;-59
2021/06/14 14:21:36;;;;;;;1.77;1.08;;;;;;;;;;5096177;28;20028;-59
2021/06/14 14:24:03;;;;;;;4.78;1.55;;;;;;;;;;5095977;28;20032;-59
2021/06/14 14:26:33;;;;;;;2.15;1.23;;;;;;;;;;5096236;28;20024;-59
2021/06/14 14:28:59;;;;;;;2.42;1.60;;;;;;;;;;5096035;28;20449;-59
2021/06/14 14:31:29;;;;;;;2.92;1.20;;;;;;;;;;5096016;28;20020;-59
2021/06/14 14:33:56;;;;;;;4.32;1.58;;;;;;;;;;5095630;28;20035;-59
2021/06/14 14:36:23;;;;;;;2.60;2.03;;;;;;;;;;5095857;28;20073;-59
2021/06/14 14:38:50;;;;;;;3.20;1.50;;;;;;;;;;5094519;28;20035;-59
2021/06/14 14:41:18;;;;;;;2.78;1.70;;;;;;;;;;5094869;28;20365;-59
2021/06/14 14:43:45;;;;;;;2.38;1.27;;;;;;;;;;5095604;28;20098;-59
2021/06/14 14:46:11;;;;;;;6.13;1.52;;;;;;;;;;5095606;28;20334;-59
2021/06/14 14:48:37;;;;;;;4.05;1.75;;;;;;;;;;5095595;28;20082;-59
2021/06/14 14:51:04;;;;;;;6.22;1.48;;;;;;;;;;5095783;28;20065;-59